Burewala Weather



Burewala's Current Weather

Temprature 27.006o clear sky

clear sky

Rain: 0 %

Min Temprature27.006o
Max Temprature27.006o
Humidity29
Wind Speed2.13 m/h
Sun Rise05:36:19
Sun Set18:39:29
Current Time: 21-Apr-2019 06:09:58
Lat/Lon: 30.16, 72.68




Burewala's Geo Location



Burewala's Weather Forecast

Time Overall Temp Min Temp Max Temp Humidity Wind Speed Rain
21-Apr-2019 (Sun)
08:00:00 clear sky 32.200 32.199 32.200 21 3.12 m/h 0 %
11:00:00 clear sky 38.050 38.050 38.050 12 4.04 m/h 0 %
14:00:00 clear sky 40.150 40.150 40.150 10 3.78 m/h 0 %
17:00:00 clear sky 39.950 39.950 39.950 10 3.36 m/h 0 %
20:00:00 clear sky 33.750 33.750 33.750 15 2.71 m/h 0 %
23:00:00 clear sky 31.070 31.070 31.070 19 2.07 m/h 0 %
22-Apr-2019 (Mon)
02:00:00 clear sky 29.470 29.470 29.470 23 3.5 m/h 0 %
05:00:00 clear sky 27.884 27.884 27.884 27 3.02 m/h 0 %
08:00:00 clear sky 32.716 32.716 32.716 22 3.72 m/h 0 %
11:00:00 clear sky 39.620 39.620 39.620 13 1.7 m/h 0 %
14:00:00 clear sky 42.215 42.215 42.215 9 3.54 m/h 0 %
17:00:00 clear sky 42.331 42.331 42.331 8 3.7 m/h 0 %
20:00:00 clear sky 35.750 35.750 35.750 12 1.72 m/h 0 %
23:00:00 clear sky 33.196 33.196 33.196 14 2.37 m/h 0 %
23-Apr-2019 (Tue)
02:00:00 clear sky 31.277 31.277 31.277 19 3.07 m/h 0 %
05:00:00 clear sky 29.486 29.486 29.486 24 3.24 m/h 0 %
08:00:00 scattered clouds 34.627 34.627 34.627 19 4.8 m/h 0 %
11:00:00 few clouds 41.450 41.450 41.450 10 2.7 m/h 0 %
14:00:00 clear sky 44.850 44.850 44.850 7 6.05 m/h 0 %
17:00:00 clear sky 43.350 43.350 43.350 8 5.32 m/h 0 %
20:00:00 clear sky 36.728 36.728 36.728 12 1.29 m/h 0 %
23:00:00 few clouds 34.650 34.650 34.650 13 1.31 m/h 0 %
24-Apr-2019 (Wed)
02:00:00 scattered clouds 32.782 32.782 32.782 13 1.69 m/h 0 %
05:00:00 few clouds 30.974 30.974 30.974 15 2.93 m/h 0 %
08:00:00 clear sky 36.350 36.350 36.350 16 5.31 m/h 0 %
11:00:00 clear sky 42.509 42.509 42.509 8 7.39 m/h 0 %
14:00:00 clear sky 43.650 43.650 43.650 5 7.78 m/h 0 %
17:00:00 clear sky 42.050 42.050 42.050 5 6.09 m/h 0 %
20:00:00 clear sky 35.355 35.355 35.355 9 2.3 m/h 0 %
23:00:00 clear sky 31.945 31.945 31.945 27 9.04 m/h 0 %
25-Apr-2019 (Thu)
02:00:00 overcast clouds 30.150 30.150 30.150 30 4.61 m/h 0 %
05:00:00 light rain 29.052 29.052 29.052 33 3.5 m/h 56 %
08:00:00 overcast clouds 32.920 32.920 32.920 26 4.53 m/h 0 %
11:00:00 broken clouds 36.990 36.990 36.990 20 3.25 m/h 0 %
14:00:00 overcast clouds 37.050 37.050 37.050 20 1.86 m/h 0 %
17:00:00 scattered clouds 39.111 39.111 39.111 16 2.99 m/h 0 %
20:00:00 clear sky 34.225 34.225 34.225 22 3.03 m/h 0 %
23:00:00 clear sky 32.343 32.343 32.343 25 2.25 m/h 0 %
26-Apr-2019 (Fri)
02:00:00 clear sky 30.432 30.432 30.432 25 3.29 m/h 0 %
05:00:00 clear sky 29.126 29.126 29.126 24 3.78 m/h 0 %


Burewala's Tourist Spots

Historical Places in Burewala

Famous Cities (60)